Yinchuan, China
Current Conditions -  °F | °C
As of 5:00 AM on Thursday 18 Dec 2014 (Local Time) from ZLLL Reporting Station
Clear Clear  
Wind Chill:   Ceiling: Unl
Heat Index: 10°   Visibility: 4mi
Dew Point:   Wind: 4mph
Humidity: 62%   Direction: 350°N
Pressure: 30.3"   Gusts: NA
Location:  38.47°N, 106.32°E
Report Text: ZLLL 172100Z 35002MPS 7000 NSC M12/M18 Q1026 NOSIG
Loading
Personal Weather Stations






























Interactive Weather Map New forecast layout! Learn more

10-Day Weather Forecast

Advertisements
Track Severe Weather on mobile